Página principal
METAR-TAF:

METAR-TAF

Aeroportos :

Rabat, Marrocos

latitude: 34-03N, longitude: 006-46W, altura: 84 m

Observação actual do tempo

O boletim foi feito há 23 minutos, às 23:00 UTC
Vento 2 kt com direcção variável
Temperatura 7°C
Humidade 87%
Pressão 1023 hPa
Visibilidade: 8000 m
Poucas nuvensa uma altura de 1300 ft
Nuvens dispersasa uma altura de 2000 ft

METAR: GMME 122300Z VRB02KT 8000 FEW013 SCT020 07/05 Q1023 NOSIG

Hora: 23:23 (23:23 UTC)

Previsão

O boletim foi feito há 6 horas e 23 minutos, às 17:00 UTC
Previsão válida de 12 às 18 UTC a 13 às 24 UTC
Vento 10 kt de es-nordeste
Visibilidade: 6000 m
Nuvens dispersasa uma altura de 1300 ft
Nuvens dispersasa uma altura de 1600 ft
Temporariamente
de 13 às 00 UTC a 13 às 06 UTC
Vento 2 kt com direcção variável
Visibilidade: 3000 m
neblina

TAF: GMME 121700Z 1218/1324 06010KT 6000 SCT013 SCT016 TEMPO 1300/1306 VRB02KT 3000 BR

Observações e previsões do tempo de mais de 4000 aeroportos (mensagens METAR e TAF).

As estações disponíveis são os pontos amarelos e vermelhos sobre o mapa.

Mova o rato sobre o mapa para ver o nome da estação.

Depois clique no ponto para visualizar as observações e previsões meteorológicas.

Para alterar o mapa : clique nos botões verdes com uma cruz preta para aumentar o zoom; no botão verde com uma pitada de zoom; ou nas setas verdes para mapas adjacentes.


METAR-TAF: